createdAt,value
2022-12-08T00:00:18.873Z,1.90
2022-12-08T00:01:19.461Z,2.10
2022-12-08T00:02:20.390Z,2.20
2022-12-08T00:03:20.901Z,1.80
2022-12-08T00:04:21.604Z,1.80
2022-12-08T00:05:22.180Z,1.70
2022-12-08T00:06:22.758Z,1.90
2022-12-08T00:07:23.485Z,1.80
2022-12-08T00:08:24.218Z,1.90
2022-12-08T00:09:24.884Z,1.90
2022-12-08T00:10:48.544Z,1.90
2022-12-08T00:11:26.388Z,1.70
2022-12-08T00:12:26.983Z,1.70
2022-12-08T00:13:27.550Z,1.70
2022-12-08T00:14:28.116Z,2.00
2022-12-08T00:15:28.684Z,1.90
2022-12-08T00:16:29.269Z,2.30
2022-12-08T00:17:29.917Z,2.10
2022-12-08T00:18:30.519Z,2.00
2022-12-08T00:19:31.099Z,1.90
2022-12-08T00:20:31.681Z,2.00
2022-12-08T00:21:32.245Z,2.00
2022-12-08T00:22:32.885Z,2.10
2022-12-08T00:23:33.454Z,1.80
2022-12-08T00:24:34.017Z,2.00
2022-12-08T00:25:34.589Z,1.90
2022-12-08T00:26:35.202Z,2.10
2022-12-08T00:27:35.806Z,2.10
2022-12-08T00:28:36.385Z,2.20
2022-12-08T00:29:36.962Z,2.00
2022-12-08T00:30:37.542Z,2.20
2022-12-08T00:31:38.200Z,2.00
2022-12-08T00:32:38.882Z,2.30
2022-12-08T00:33:39.476Z,2.20
2022-12-08T00:34:40.038Z,2.20
2022-12-08T00:35:43.278Z,2.40
2022-12-08T00:36:41.571Z,2.30
2022-12-08T00:37:42.318Z,2.40
2022-12-08T00:38:42.888Z,2.40
2022-12-08T00:39:43.493Z,2.30
2022-12-08T00:40:44.077Z,2.40
2022-12-08T00:41:44.640Z,2.10
2022-12-08T00:42:45.299Z,2.00
2022-12-08T00:43:45.877Z,2.30
2022-12-08T00:44:46.458Z,2.50
2022-12-08T00:45:47.100Z,2.30
2022-12-08T00:46:47.703Z,2.20
2022-12-08T00:47:48.360Z,2.30
2022-12-08T00:48:48.960Z,2.20
2022-12-08T00:49:49.539Z,2.30
2022-12-08T00:50:50.119Z,2.00
2022-12-08T00:51:50.711Z,2.30
2022-12-08T00:52:51.354Z,2.20
2022-12-08T00:53:51.927Z,2.50
2022-12-08T00:54:52.522Z,2.10
2022-12-08T00:55:53.094Z,2.40
2022-12-08T00:56:53.667Z,2.30
2022-12-08T00:57:54.340Z,2.50
2022-12-08T00:58:54.913Z,2.20
2022-12-08T00:59:55.478Z,2.20
2022-12-08T01:00:56.157Z,2.20
2022-12-08T01:01:56.745Z,2.20
2022-12-08T01:02:57.386Z,2.00
2022-12-08T01:03:58.005Z,2.40
2022-12-08T01:04:58.602Z,2.10
2022-12-08T01:05:59.165Z,2.00
2022-12-08T01:06:59.757Z,2.10
2022-12-08T01:08:00.530Z,2.10
2022-12-08T01:09:01.142Z,2.50
2022-12-08T01:10:01.989Z,2.20
2022-12-08T01:11:02.276Z,2.50
2022-12-08T01:12:02.860Z,2.80
2022-12-08T01:13:03.561Z,2.90
2022-12-08T01:14:04.143Z,2.50
2022-12-08T01:15:04.707Z,2.70
2022-12-08T01:16:05.282Z,2.90
2022-12-08T01:17:06.008Z,3.00
2022-12-08T01:18:06.762Z,2.50
2022-12-08T01:19:07.369Z,2.20
2022-12-08T01:20:07.952Z,2.30
2022-12-08T01:21:08.537Z,2.00
2022-12-08T01:22:09.120Z,2.10
2022-12-08T01:23:09.803Z,2.10
2022-12-08T01:24:10.374Z,2.20
2022-12-08T01:25:10.948Z,2.00
2022-12-08T01:26:11.518Z,1.90
2022-12-08T01:27:12.089Z,1.80
2022-12-08T01:28:12.701Z,2.00
2022-12-08T01:29:13.279Z,1.80
2022-12-08T01:30:13.868Z,1.70
2022-12-08T01:31:14.494Z,1.90
2022-12-08T01:32:15.119Z,2.10
2022-12-08T01:33:15.824Z,1.50
2022-12-08T01:34:16.430Z,2.10
2022-12-08T01:35:16.997Z,1.90
2022-12-08T01:36:17.574Z,1.70
2022-12-08T01:37:18.153Z,1.70
2022-12-08T01:38:18.822Z,1.60
2022-12-08T01:39:19.409Z,2.00
2022-12-08T01:40:19.989Z,1.80
2022-12-08T01:41:20.572Z,1.70
2022-12-08T01:42:21.149Z,1.80
2022-12-08T01:43:21.820Z,1.80
2022-12-08T01:44:22.414Z,1.80
2022-12-08T01:45:23.000Z,1.70
2022-12-08T01:46:23.635Z,1.80
2022-12-08T01:47:24.240Z,1.70
2022-12-08T01:48:24.917Z,1.70
2022-12-08T01:49:25.584Z,2.00
2022-12-08T01:50:26.163Z,1.70
2022-12-08T01:51:26.731Z,1.70
2022-12-08T01:52:27.316Z,1.70
2022-12-08T01:53:28.020Z,2.30
2022-12-08T01:54:28.602Z,1.70
2022-12-08T01:55:29.179Z,1.50
2022-12-08T01:56:29.744Z,1.60
2022-12-08T01:57:30.314Z,1.70
2022-12-08T01:58:30.911Z,1.50
2022-12-08T01:59:31.481Z,1.70
2022-12-08T02:00:32.053Z,1.80
2022-12-08T02:01:32.664Z,1.80
2022-12-08T02:02:33.391Z,1.60
2022-12-08T02:03:34.099Z,1.70
2022-12-08T02:04:34.699Z,1.60
2022-12-08T02:05:35.271Z,1.90
2022-12-08T02:06:35.853Z,1.70
2022-12-08T02:07:36.533Z,1.60
2022-12-08T02:08:37.251Z,1.90
2022-12-08T02:09:37.827Z,1.90
2022-12-08T02:10:38.410Z,1.80
2022-12-08T02:11:38.978Z,1.90
2022-12-08T02:12:39.543Z,1.60
2022-12-08T02:13:40.155Z,1.60
2022-12-08T02:14:40.741Z,1.50
2022-12-08T02:15:41.401Z,1.60
2022-12-08T02:16:42.015Z,2.00
2022-12-08T02:17:42.594Z,1.70
2022-12-08T02:18:43.193Z,1.60
2022-12-08T02:19:43.795Z,1.80
2022-12-08T02:20:44.373Z,1.80
2022-12-08T02:21:44.956Z,1.90
2022-12-08T02:22:45.545Z,1.60
2022-12-08T02:23:46.226Z,1.70
2022-12-08T02:24:46.808Z,1.60
2022-12-08T02:25:47.406Z,1.60
2022-12-08T02:26:47.973Z,1.50
2022-12-08T02:27:48.539Z,1.80
2022-12-08T02:28:49.148Z,1.90
2022-12-08T02:29:49.736Z,1.70
2022-12-08T02:30:50.395Z,1.70
2022-12-08T02:31:51.004Z,1.80
2022-12-08T02:32:51.584Z,1.70
2022-12-08T02:33:52.271Z,1.90
2022-12-08T02:34:52.877Z,1.70
2022-12-08T02:35:53.447Z,1.90
2022-12-08T02:36:54.028Z,1.60
2022-12-08T02:37:54.606Z,2.20
2022-12-08T02:38:55.321Z,1.90
2022-12-08T02:39:55.903Z,1.80
2022-12-08T02:40:56.481Z,1.50
2022-12-08T02:41:57.048Z,1.50
2022-12-08T02:42:57.622Z,1.90
2022-12-08T02:43:58.236Z,1.60
2022-12-08T02:44:58.808Z,1.70
2022-12-08T02:45:59.448Z,1.80
2022-12-08T02:47:00.044Z,1.70
2022-12-08T02:48:00.620Z,2.00
2022-12-08T02:49:01.227Z,1.70
2022-12-08T02:50:02.175Z,1.80
2022-12-08T02:51:02.519Z,1.90
2022-12-08T02:52:03.089Z,1.50
2022-12-08T02:53:03.656Z,1.70
2022-12-08T02:54:04.301Z,1.90
2022-12-08T02:55:04.872Z,1.80
2022-12-08T02:56:05.464Z,2.00
2022-12-08T02:57:06.042Z,2.10
2022-12-08T02:58:06.617Z,1.90
2022-12-08T02:59:07.224Z,2.10
2022-12-08T03:00:08.262Z,1.90
2022-12-08T03:01:08.606Z,2.00
2022-12-08T03:02:09.303Z,2.10
2022-12-08T03:03:10.054Z,1.90
2022-12-08T03:04:10.860Z,1.60
2022-12-08T03:05:11.448Z,2.10
2022-12-08T03:06:12.015Z,2.00
2022-12-08T03:07:12.575Z,2.00
2022-12-08T03:08:13.272Z,2.10
2022-12-08T03:09:14.001Z,2.10
2022-12-08T03:10:14.583Z,2.30
2022-12-08T03:11:15.159Z,2.20
2022-12-08T03:12:15.724Z,2.10
2022-12-08T03:13:16.291Z,2.10
2022-12-08T03:14:16.894Z,2.00
2022-12-08T03:15:17.493Z,2.10
2022-12-08T03:16:18.104Z,2.10
2022-12-08T03:17:18.711Z,1.90
2022-12-08T03:18:19.282Z,1.90
2022-12-08T03:19:19.889Z,1.80
2022-12-08T03:20:20.492Z,2.00
2022-12-08T03:21:21.080Z,1.90
2022-12-08T03:22:21.664Z,1.80
2022-12-08T03:23:22.240Z,2.20
2022-12-08T03:24:22.893Z,2.10
2022-12-08T03:25:23.478Z,1.80
2022-12-08T03:26:24.056Z,1.80
2022-12-08T03:27:24.638Z,2.10
2022-12-08T03:28:25.209Z,2.00
2022-12-08T03:29:25.856Z,2.30
2022-12-08T03:30:26.438Z,2.30
2022-12-08T03:31:27.163Z,2.10
2022-12-08T03:32:27.775Z,1.90
2022-12-08T03:33:28.350Z,1.90
2022-12-08T03:34:29.032Z,2.00
2022-12-08T03:35:29.631Z,2.00
2022-12-08T03:36:30.231Z,2.10
2022-12-08T03:37:30.824Z,2.30
2022-12-08T03:38:31.394Z,2.00
2022-12-08T03:39:32.111Z,2.20
2022-12-08T03:40:32.684Z,2.40
2022-12-08T03:41:33.249Z,2.20
2022-12-08T03:42:33.819Z,2.20
2022-12-08T03:43:34.388Z,2.20
2022-12-08T03:44:34.988Z,2.10
2022-12-08T03:45:35.571Z,2.00
2022-12-08T03:46:36.150Z,2.20
2022-12-08T03:47:36.732Z,2.00
2022-12-08T03:48:37.309Z,1.90
2022-12-08T03:49:37.918Z,2.00
2022-12-08T03:50:38.532Z,1.90
2022-12-08T03:51:39.111Z,2.00
2022-12-08T03:52:39.702Z,2.00
2022-12-08T03:53:40.271Z,1.90
2022-12-08T03:54:40.928Z,2.10
2022-12-08T03:55:41.509Z,2.10
2022-12-08T03:56:42.088Z,2.00
2022-12-08T03:57:42.652Z,2.20
2022-12-08T03:58:43.227Z,2.00
2022-12-08T03:59:43.837Z,1.70
2022-12-08T04:00:44.413Z,1.80
2022-12-08T04:01:45.067Z,2.20
2022-12-08T04:02:45.760Z,2.40
2022-12-08T04:03:46.380Z,2.20
2022-12-08T04:04:47.008Z,2.10
2022-12-08T04:05:47.599Z,2.30
2022-12-08T04:06:48.174Z,2.20
2022-12-08T04:07:48.811Z,2.00
2022-12-08T04:08:49.417Z,1.90
2022-12-08T04:09:50.208Z,2.00
2022-12-08T04:10:50.780Z,2.10
2022-12-08T04:11:51.353Z,1.90
2022-12-08T04:12:51.933Z,2.30
2022-12-08T04:13:52.531Z,1.90
2022-12-08T04:14:53.135Z,2.20
2022-12-08T04:15:53.875Z,2.30
2022-12-08T04:16:54.502Z,2.00
2022-12-08T04:17:55.081Z,2.00
2022-12-08T04:18:55.658Z,2.00
2022-12-08T04:19:56.348Z,2.30
2022-12-08T04:20:56.960Z,2.30
2022-12-08T04:21:57.544Z,2.20
2022-12-08T04:22:58.129Z,2.40
2022-12-08T04:24:01.302Z,2.10
2022-12-08T04:24:59.705Z,2.30
2022-12-08T04:26:00.291Z,2.60
2022-12-08T04:27:00.872Z,2.20
2022-12-08T04:28:01.441Z,2.20
2022-12-08T04:29:02.012Z,2.90
2022-12-08T04:30:03.032Z,2.50
2022-12-08T04:31:03.387Z,2.50
2022-12-08T04:32:04.019Z,2.40
2022-12-08T04:33:04.598Z,2.20
2022-12-08T04:34:05.167Z,2.40
2022-12-08T04:35:05.825Z,2.60
2022-12-08T04:36:06.424Z,2.50
2022-12-08T04:37:07.004Z,2.60
2022-12-08T04:38:07.586Z,2.50
2022-12-08T04:39:08.163Z,2.60
2022-12-08T04:40:08.854Z,2.20
2022-12-08T04:41:09.451Z,2.50
2022-12-08T04:42:10.034Z,2.20
2022-12-08T04:43:10.602Z,2.10
2022-12-08T04:44:11.175Z,2.60
2022-12-08T04:45:11.779Z,2.50
2022-12-08T04:46:12.431Z,2.40
2022-12-08T04:47:13.168Z,2.60
2022-12-08T04:48:13.814Z,2.70
2022-12-08T04:49:14.382Z,2.40
2022-12-08T04:50:15.014Z,2.60
2022-12-08T04:51:15.608Z,2.30
2022-12-08T04:52:16.194Z,2.40
2022-12-08T04:53:16.777Z,2.70
2022-12-08T04:54:17.358Z,2.60
2022-12-08T04:55:18.010Z,2.40
2022-12-08T04:56:18.586Z,2.40
2022-12-08T04:57:19.167Z,2.20
2022-12-08T04:58:19.734Z,2.60
2022-12-08T04:59:20.302Z,2.50
2022-12-08T05:00:20.909Z,2.70
2022-12-08T05:01:21.558Z,2.80
2022-12-08T05:02:22.267Z,2.90
2022-12-08T05:03:28.507Z,2.60
2022-12-08T05:04:23.780Z,2.50
2022-12-08T05:05:24.384Z,2.70
2022-12-08T05:06:24.994Z,2.70
2022-12-08T05:07:25.572Z,2.60
2022-12-08T05:08:26.250Z,2.60
2022-12-08T05:09:26.880Z,2.60
2022-12-08T05:10:27.556Z,2.70
2022-12-08T05:11:28.134Z,2.80
2022-12-08T05:12:28.726Z,2.70
2022-12-08T05:13:29.270Z,3.00
2022-12-08T05:14:29.782Z,2.60
2022-12-08T05:15:30.332Z,2.80
2022-12-08T05:16:30.947Z,2.60
2022-12-08T05:17:31.510Z,2.70
2022-12-08T05:18:32.040Z,2.70
2022-12-08T05:19:32.565Z,2.70
2022-12-08T05:20:33.175Z,2.70
2022-12-08T05:21:33.721Z,2.60
2022-12-08T05:22:34.255Z,2.70
2022-12-08T05:23:34.779Z,3.10
2022-12-08T05:24:35.311Z,2.80
2022-12-08T05:25:35.873Z,2.60
2022-12-08T05:26:36.393Z,2.50
2022-12-08T05:27:36.920Z,3.00
2022-12-08T05:28:42.349Z,3.10
2022-12-08T05:29:38.313Z,2.90
2022-12-08T05:30:38.860Z,2.70
2022-12-08T05:31:39.446Z,2.90
2022-12-08T05:32:39.980Z,3.00
2022-12-08T05:33:40.538Z,3.10
2022-12-08T05:34:41.076Z,3.30
2022-12-08T05:35:41.685Z,3.30
2022-12-08T05:36:42.242Z,3.30
2022-12-08T05:37:42.766Z,3.20
2022-12-08T05:38:43.292Z,3.20
2022-12-08T05:39:43.815Z,3.00
2022-12-08T05:40:44.483Z,3.20
2022-12-08T05:41:45.005Z,3.00
2022-12-08T05:42:45.531Z,3.10
2022-12-08T05:43:46.124Z,3.10
2022-12-08T05:44:53.068Z,3.50
2022-12-08T05:45:47.752Z,3.10
2022-12-08T05:46:48.359Z,3.30
2022-12-08T05:47:48.873Z,3.50
2022-12-08T05:48:58.472Z,3.20
2022-12-08T05:49:51.545Z,3.00
2022-12-08T05:50:51.353Z,3.10
2022-12-08T05:51:51.403Z,3.60
2022-12-08T05:52:51.929Z,3.40
2022-12-08T05:53:52.447Z,3.40
2022-12-08T05:54:53.313Z,3.20
2022-12-08T05:55:55.484Z,3.50
2022-12-08T05:56:55.156Z,3.50
2022-12-08T05:57:55.335Z,3.40
2022-12-08T05:58:55.902Z,3.40
2022-12-08T05:59:56.475Z,3.30
2022-12-08T06:00:57.644Z,3.30
2022-12-08T06:01:58.165Z,3.50
2022-12-08T06:02:58.784Z,3.60
2022-12-08T06:03:59.052Z,3.90
2022-12-08T06:04:59.632Z,7.30
2022-12-08T06:06:09.042Z,7.50
2022-12-08T06:07:02.037Z,4.30
2022-12-08T06:08:34.834Z,3.50
2022-12-08T06:09:21.619Z,3.50
2022-12-08T06:10:05.514Z,3.40
2022-12-08T06:11:04.142Z,3.40
2022-12-08T06:12:04.694Z,3.60
2022-12-08T06:13:05.226Z,3.40
2022-12-08T06:14:05.804Z,3.40
2022-12-08T06:15:17.125Z,3.20
2022-12-08T06:16:07.014Z,3.60
2022-12-08T06:17:07.683Z,3.40
2022-12-08T06:18:11.638Z,3.70
2022-12-08T06:19:09.393Z,3.20
2022-12-08T06:20:10.792Z,3.50
2022-12-08T06:21:10.911Z,3.50
2022-12-08T06:22:11.462Z,3.20
2022-12-08T06:23:11.988Z,3.30
2022-12-08T06:24:12.522Z,3.40
2022-12-08T06:25:13.182Z,3.60
2022-12-08T06:26:13.789Z,3.60
2022-12-08T06:27:14.350Z,3.30
2022-12-08T06:28:14.882Z,3.30
2022-12-08T06:29:15.449Z,3.70
2022-12-08T06:30:15.977Z,3.40
2022-12-08T06:31:15.545Z,3.40
2022-12-08T06:32:17.206Z,3.50
2022-12-08T06:33:17.782Z,3.60
2022-12-08T06:34:19.215Z,3.50
2022-12-08T06:35:19.242Z,3.70
2022-12-08T06:36:19.853Z,3.70
2022-12-08T06:37:20.415Z,3.60
2022-12-08T06:38:20.941Z,3.70
2022-12-08T06:39:21.471Z,3.90
2022-12-08T06:40:22.015Z,3.90
2022-12-08T06:41:22.617Z,3.70
2022-12-08T06:42:23.172Z,3.70
2022-12-08T06:43:23.741Z,3.50
2022-12-08T06:44:24.269Z,3.70
2022-12-08T06:45:24.885Z,4.00
2022-12-08T06:46:25.563Z,3.90
2022-12-08T06:47:26.586Z,4.30
2022-12-08T06:48:27.154Z,4.20
2022-12-08T06:49:27.706Z,4.40
2022-12-08T06:50:28.988Z,4.10
2022-12-08T06:51:35.880Z,4.30
2022-12-08T06:52:31.658Z,3.90
2022-12-08T06:53:36.100Z,3.80
2022-12-08T06:54:33.639Z,4.70
2022-12-08T06:56:32.497Z,4.80
2022-12-08T06:57:36.648Z,5.20
2022-12-08T06:58:34.120Z,4.30
2022-12-08T06:59:34.646Z,4.60
2022-12-08T07:00:35.261Z,5.20
2022-12-08T07:01:36.127Z,4.50
2022-12-08T07:02:36.897Z,5.10
2022-12-08T07:03:37.546Z,4.80
2022-12-08T07:04:38.424Z,4.80
2022-12-08T07:05:39.450Z,4.80
2022-12-08T07:06:39.872Z,4.60
2022-12-08T07:07:40.619Z,4.70
2022-12-08T07:08:41.331Z,4.70
2022-12-08T07:09:41.901Z,5.10
2022-12-08T07:10:42.417Z,4.50
2022-12-08T07:11:43.681Z,4.50
2022-12-08T07:12:43.898Z,4.80
2022-12-08T07:13:44.451Z,4.40
2022-12-08T07:14:45.317Z,4.30
2022-12-08T07:15:46.727Z,4.10
2022-12-08T07:16:46.553Z,4.50
2022-12-08T07:17:47.134Z,4.40
2022-12-08T07:18:49.439Z,4.30
2022-12-08T07:19:56.262Z,4.30
2022-12-08T07:20:49.103Z,4.10
2022-12-08T07:22:00.348Z,4.50
2022-12-08T07:22:51.827Z,4.40
2022-12-08T07:23:57.418Z,4.80
2022-12-08T07:24:51.653Z,5.40
2022-12-08T07:25:58.211Z,4.90
2022-12-08T07:26:52.911Z,5.00
2022-12-08T07:27:53.549Z,5.80
2022-12-08T07:28:54.543Z,5.50
2022-12-08T07:30:07.846Z,5.10
2022-12-08T07:30:56.884Z,5.50
2022-12-08T07:31:58.759Z,5.20
2022-12-08T07:32:57.373Z,5.30
2022-12-08T07:33:58.110Z,5.50
2022-12-08T07:34:58.646Z,5.10
2022-12-08T07:36:04.439Z,5.10
2022-12-08T07:36:59.863Z,5.30
2022-12-08T07:38:00.410Z,5.10
2022-12-08T07:39:00.935Z,5.00
2022-12-08T07:40:01.986Z,5.10
2022-12-08T07:41:02.201Z,5.30
2022-12-08T07:42:02.986Z,5.40
2022-12-08T07:43:03.547Z,6.00
2022-12-08T07:44:04.150Z,5.30
2022-12-08T07:45:04.749Z,5.20
2022-12-08T07:46:05.466Z,5.30
2022-12-08T07:47:06.063Z,5.10
2022-12-08T07:48:06.676Z,5.20
2022-12-08T07:49:09.378Z,5.20
2022-12-08T07:50:08.225Z,5.00
2022-12-08T07:51:08.488Z,5.00
2022-12-08T07:52:09.390Z,5.40
2022-12-08T07:53:10.321Z,5.20
2022-12-08T07:54:10.832Z,5.50
2022-12-08T07:55:11.351Z,5.20
2022-12-08T07:56:12.552Z,5.30
2022-12-08T07:57:12.697Z,5.20
2022-12-08T07:58:13.229Z,5.10
2022-12-08T07:59:13.757Z,5.70
2022-12-08T08:00:15.890Z,5.40
2022-12-08T08:01:16.152Z,5.50
2022-12-08T08:02:24.280Z,5.40
2022-12-08T08:03:16.537Z,5.70
2022-12-08T08:04:17.198Z,5.50
2022-12-08T08:05:17.817Z,5.40
2022-12-08T08:06:18.624Z,5.40
2022-12-08T08:07:19.369Z,6.00
2022-12-08T08:08:23.885Z,5.10
2022-12-08T08:09:29.908Z,5.60
2022-12-08T08:10:29.756Z,5.70
2022-12-08T08:11:26.695Z,6.00
2022-12-08T08:12:31.279Z,5.70
2022-12-08T08:13:23.714Z,5.40
2022-12-08T08:14:24.383Z,5.50
2022-12-08T08:15:24.966Z,5.40
2022-12-08T08:16:25.714Z,5.90
2022-12-08T08:17:26.716Z,6.10
2022-12-08T08:18:30.830Z,6.20
2022-12-08T08:19:32.014Z,5.90
2022-12-08T08:20:28.741Z,6.10
2022-12-08T08:21:48.169Z,5.50
2022-12-08T08:22:30.148Z,5.80
2022-12-08T08:23:30.221Z,6.40
2022-12-08T08:24:31.001Z,6.80
2022-12-08T08:25:31.540Z,7.20
2022-12-08T08:26:32.106Z,6.20
2022-12-08T08:27:32.834Z,6.40
2022-12-08T08:28:34.444Z,5.80
2022-12-08T08:29:34.303Z,5.10
2022-12-08T08:30:34.929Z,5.50
2022-12-08T08:31:35.612Z,5.70
2022-12-08T08:32:36.228Z,5.30
2022-12-08T08:33:38.310Z,5.30
2022-12-08T08:34:37.331Z,5.50
2022-12-08T08:35:38.697Z,5.70
2022-12-08T08:36:40.134Z,5.80
2022-12-08T08:37:43.026Z,5.10
2022-12-08T08:38:40.547Z,5.50
2022-12-08T08:39:41.099Z,5.30
2022-12-08T08:40:46.142Z,5.70
2022-12-08T08:41:52.175Z,5.30
2022-12-08T08:42:51.354Z,4.50
2022-12-08T08:43:45.534Z,5.40
2022-12-08T08:44:44.369Z,4.70
2022-12-08T08:45:44.904Z,4.40
2022-12-08T08:46:46.414Z,4.20
2022-12-08T08:47:46.187Z,4.90
2022-12-08T08:48:46.835Z,4.30
2022-12-08T08:49:47.516Z,4.60
2022-12-08T08:50:48.072Z,4.50
2022-12-08T08:51:48.600Z,4.20
2022-12-08T08:52:49.166Z,5.60
2022-12-08T08:53:49.720Z,5.20
2022-12-08T08:54:50.251Z,4.90
2022-12-08T08:55:50.791Z,4.80
2022-12-08T08:56:52.054Z,4.90
2022-12-08T08:57:52.386Z,4.80
2022-12-08T08:58:52.945Z,4.60
2022-12-08T08:59:53.640Z,4.50
2022-12-08T09:00:54.166Z,4.40
2022-12-08T09:01:54.780Z,4.70
2022-12-08T09:03:00.185Z,5.10
2022-12-08T09:06:06.421Z,5.30
2022-12-08T09:08:55.296Z,5.40
2022-12-08T09:09:51.094Z,5.90
2022-12-08T09:10:43.047Z,5.60
2022-12-08T09:11:38.916Z,5.90
2022-12-08T09:12:39.470Z,6.10
2022-12-08T09:13:40.236Z,6.70
2022-12-08T09:14:41.190Z,6.50
2022-12-08T09:15:41.327Z,7.00
2022-12-08T09:16:42.656Z,7.40
2022-12-08T09:17:46.501Z,7.80
2022-12-08T09:18:43.584Z,7.30
2022-12-08T09:19:44.144Z,7.40
2022-12-08T09:20:44.662Z,8.10
2022-12-08T09:21:46.359Z,7.60
2022-12-08T09:22:46.039Z,7.20
2022-12-08T09:23:46.598Z,6.90
2022-12-08T09:24:47.189Z,6.90
2022-12-08T09:25:47.733Z,7.00
2022-12-08T09:26:48.268Z,6.60
2022-12-08T09:27:54.546Z,6.40
2022-12-08T09:28:49.358Z,6.10
2022-12-08T09:29:50.215Z,6.20
2022-12-08T09:30:50.453Z,6.10
2022-12-08T09:31:51.087Z,5.50
2022-12-08T09:32:51.711Z,5.90
2022-12-08T09:33:52.277Z,6.00
2022-12-08T09:34:52.789Z,6.70
2022-12-08T09:35:53.673Z,6.40
2022-12-08T09:36:54.201Z,6.00
2022-12-08T09:37:54.722Z,5.80
2022-12-08T09:38:56.699Z,5.40
2022-12-08T09:39:56.305Z,5.00
2022-12-08T09:40:56.943Z,5.60
2022-12-08T09:41:57.623Z,5.40
2022-12-08T09:42:58.323Z,5.30
2022-12-08T09:43:59.782Z,4.80
2022-12-08T09:45:00.537Z,4.60
2022-12-08T09:46:04.092Z,5.30
2022-12-08T09:47:22.957Z,4.80
2022-12-08T09:48:02.241Z,5.40
2022-12-08T09:49:23.400Z,5.00
2022-12-08T09:50:18.814Z,5.30
2022-12-08T09:51:05.811Z,5.50
2022-12-08T09:52:19.816Z,5.00
2022-12-08T09:53:06.228Z,4.80
2022-12-08T09:54:06.973Z,4.70
2022-12-08T09:55:07.586Z,4.60
2022-12-08T09:56:08.114Z,5.00
2022-12-08T09:57:09.066Z,5.40
2022-12-08T09:58:09.616Z,5.50
2022-12-08T09:59:10.166Z,5.50
2022-12-08T10:00:10.732Z,5.20
2022-12-08T10:01:11.263Z,5.20
2022-12-08T10:02:15.048Z,5.10
2022-12-08T10:03:16.587Z,4.60
2022-12-08T10:04:39.151Z,4.90
2022-12-08T10:05:14.592Z,4.50
2022-12-08T10:06:14.749Z,4.40
2022-12-08T10:07:15.277Z,4.30
2022-12-08T10:08:15.938Z,4.50
2022-12-08T10:09:21.207Z,5.00
2022-12-08T10:10:17.433Z,4.60
2022-12-08T10:11:18.138Z,4.70
2022-12-08T10:12:18.669Z,4.90
2022-12-08T10:13:21.935Z,5.00
2022-12-08T10:14:20.720Z,4.70
2022-12-08T10:15:24.185Z,4.30
2022-12-08T10:16:30.139Z,4.60
2022-12-08T10:17:22.196Z,4.30
2022-12-08T10:18:22.957Z,4.40
2022-12-08T10:19:23.481Z,4.80
2022-12-08T10:20:24.238Z,4.20
2022-12-08T10:21:24.953Z,4.20
2022-12-08T10:22:45.081Z,4.50
2022-12-08T10:23:26.237Z,4.60
2022-12-08T10:24:27.063Z,4.10
2022-12-08T10:25:27.689Z,4.20
2022-12-08T10:26:28.218Z,4.70
2022-12-08T10:27:28.739Z,4.60
2022-12-08T10:28:29.283Z,5.00
2022-12-08T10:29:30.754Z,4.90
2022-12-08T10:30:30.824Z,4.50
2022-12-08T10:31:31.516Z,6.10
2022-12-08T10:32:33.047Z,5.80
2022-12-08T10:33:33.139Z,5.50
2022-12-08T10:34:33.736Z,5.10
2022-12-08T10:35:34.306Z,5.30
2022-12-08T10:36:34.883Z,4.60
2022-12-08T10:37:35.486Z,4.80
2022-12-08T10:38:36.515Z,4.30
2022-12-08T10:39:36.902Z,4.40
2022-12-08T10:40:43.827Z,4.70
2022-12-08T10:41:38.389Z,4.60
2022-12-08T10:42:38.917Z,4.90
2022-12-08T10:43:39.484Z,4.40
2022-12-08T10:44:40.012Z,4.90
2022-12-08T10:45:40.633Z,4.30
2022-12-08T10:46:41.249Z,5.00
2022-12-08T10:47:45.021Z,5.10
2022-12-08T10:48:42.748Z,4.90
2022-12-08T10:49:43.309Z,4.80
2022-12-08T10:50:45.027Z,5.00
2022-12-08T10:51:44.562Z,4.70
2022-12-08T10:52:45.094Z,4.90
2022-12-08T10:53:45.677Z,5.10
2022-12-08T10:54:46.385Z,5.10
2022-12-08T10:55:47.056Z,5.20
2022-12-08T10:56:47.590Z,4.80
2022-12-08T10:57:48.216Z,5.30
2022-12-08T10:58:48.738Z,4.60
2022-12-08T10:59:49.516Z,5.20
2022-12-08T11:00:50.191Z,4.90
2022-12-08T11:01:51.020Z,5.30
2022-12-08T11:02:51.667Z,5.30
2022-12-08T11:03:52.236Z,5.20
2022-12-08T11:04:52.768Z,5.10
2022-12-08T11:05:53.360Z,5.30
2022-12-08T11:06:53.931Z,5.20
2022-12-08T11:07:54.551Z,5.40
2022-12-08T11:08:55.177Z,5.30
2022-12-08T11:09:55.708Z,5.30
2022-12-08T11:10:56.312Z,5.20
2022-12-08T11:11:56.838Z,5.30
2022-12-08T11:12:57.512Z,5.00
2022-12-08T11:13:58.197Z,4.90
2022-12-08T11:14:58.731Z,5.50
2022-12-08T11:15:59.343Z,5.00
2022-12-08T11:17:04.373Z,5.40
2022-12-08T11:18:00.737Z,5.40
2022-12-08T11:19:01.974Z,5.20
2022-12-08T11:20:03.042Z,5.20
2022-12-08T11:21:02.943Z,5.50
2022-12-08T11:22:03.469Z,5.10
2022-12-08T11:23:04.004Z,5.20
2022-12-08T11:24:04.536Z,5.10
2022-12-08T11:25:05.075Z,5.80
2022-12-08T11:26:06.192Z,5.40
2022-12-08T11:27:06.234Z,5.20
2022-12-08T11:28:07.727Z,5.20
2022-12-08T11:29:07.252Z,5.30
2022-12-08T11:30:12.733Z,5.00
2022-12-08T11:31:08.756Z,4.80
2022-12-08T11:32:09.374Z,4.70
2022-12-08T11:33:10.715Z,5.10
2022-12-08T11:34:10.744Z,4.70
2022-12-08T11:35:17.578Z,5.20
2022-12-08T11:36:12.155Z,4.80
2022-12-08T11:37:12.682Z,4.50
2022-12-08T11:38:21.636Z,5.00
2022-12-08T11:39:14.952Z,5.10
2022-12-08T11:40:21.368Z,4.80
2022-12-08T11:41:16.642Z,4.80
2022-12-08T11:42:16.402Z,5.40
2022-12-08T11:43:16.933Z,4.70
2022-12-08T11:44:17.455Z,4.80
2022-12-08T11:45:17.979Z,4.90
2022-12-08T11:46:18.622Z,4.60
2022-12-08T11:47:19.254Z,4.40
2022-12-08T11:48:19.795Z,4.00
2022-12-08T11:49:20.316Z,4.00
2022-12-08T11:50:21.062Z,4.20
2022-12-08T11:51:21.675Z,4.20
2022-12-08T11:52:22.219Z,4.10
2022-12-08T11:53:22.810Z,4.30
2022-12-08T11:54:23.345Z,4.00
2022-12-08T11:55:23.992Z,4.30
2022-12-08T11:56:24.581Z,4.10
2022-12-08T11:57:25.116Z,4.10
2022-12-08T11:58:26.532Z,3.70
2022-12-08T11:59:26.630Z,4.60
2022-12-08T12:00:27.389Z,4.40
2022-12-08T12:01:27.949Z,4.30
2022-12-08T12:02:28.511Z,4.20
2022-12-08T12:03:29.140Z,4.00
2022-12-08T12:04:29.706Z,3.70
2022-12-08T12:06:03.335Z,4.40
2022-12-08T12:06:53.336Z,3.90
2022-12-08T12:07:31.876Z,4.50
2022-12-08T12:08:32.405Z,4.10
2022-12-08T12:09:32.947Z,4.00
2022-12-08T12:10:33.498Z,4.00
2022-12-08T12:11:34.081Z,4.30
2022-12-08T12:12:39.448Z,3.90
2022-12-08T12:13:35.470Z,3.80
2022-12-08T12:14:36.003Z,4.10
2022-12-08T12:15:36.535Z,3.80
2022-12-08T12:16:37.147Z,4.00
2022-12-08T12:17:37.713Z,4.00
2022-12-08T12:18:38.237Z,3.80
2022-12-08T12:19:38.760Z,4.00
2022-12-08T12:20:39.296Z,4.00
2022-12-08T12:21:39.975Z,3.80
2022-12-08T12:22:40.493Z,3.80
2022-12-08T12:23:41.021Z,3.90
2022-12-08T12:24:41.545Z,3.90
2022-12-08T12:25:42.073Z,3.90
2022-12-08T12:26:42.853Z,4.30
2022-12-08T12:27:43.274Z,3.90
2022-12-08T12:28:43.799Z,3.30
2022-12-08T12:29:44.321Z,3.30
2022-12-08T12:30:44.906Z,4.00
2022-12-08T12:31:45.461Z,3.80
2022-12-08T12:32:46.008Z,4.20
2022-12-08T12:33:46.526Z,3.90
2022-12-08T12:34:47.039Z,3.50
2022-12-08T12:35:47.603Z,3.80
2022-12-08T12:36:48.157Z,3.90
2022-12-08T12:37:48.687Z,3.90
2022-12-08T12:38:49.691Z,4.70
2022-12-08T12:39:50.213Z,4.00
2022-12-08T12:40:50.748Z,4.40
2022-12-08T12:41:51.382Z,4.10
2022-12-08T12:42:51.900Z,4.30
2022-12-08T12:43:52.471Z,4.60
2022-12-08T12:44:53.088Z,4.10
2022-12-08T12:45:53.642Z,4.40
2022-12-08T12:46:54.276Z,4.10
2022-12-08T12:47:56.864Z,4.20
2022-12-08T12:48:55.869Z,4.10
2022-12-08T12:49:56.380Z,4.10
2022-12-08T12:50:56.904Z,3.90
2022-12-08T12:51:57.459Z,4.20
2022-12-08T12:52:57.980Z,3.90
2022-12-08T12:53:58.495Z,4.80
2022-12-08T12:54:59.098Z,4.30
2022-12-08T12:55:59.842Z,4.70
2022-12-08T12:57:00.429Z,4.80
2022-12-08T12:58:00.947Z,4.60
2022-12-08T12:59:01.478Z,4.40
2022-12-08T13:00:02.185Z,4.30
2022-12-08T13:01:02.896Z,3.90
2022-12-08T13:02:03.590Z,3.90
2022-12-08T13:03:04.312Z,3.80
2022-12-08T13:04:05.421Z,4.00
2022-12-08T13:05:05.919Z,3.90
2022-12-08T13:06:11.384Z,4.10
2022-12-08T13:07:08.871Z,3.80
2022-12-08T13:08:07.667Z,4.10
2022-12-08T13:09:08.241Z,4.10
2022-12-08T13:10:11.753Z,3.80
2022-12-08T13:11:09.375Z,4.10
2022-12-08T13:12:09.984Z,3.80
2022-12-08T13:13:10.496Z,4.30
2022-12-08T13:14:11.010Z,4.30
2022-12-08T13:15:11.530Z,3.80
2022-12-08T13:16:18.759Z,3.90
2022-12-08T13:17:13.499Z,3.60
2022-12-08T13:18:13.686Z,3.70
2022-12-08T13:19:14.217Z,4.00
2022-12-08T13:20:14.751Z,4.30
2022-12-08T13:21:15.550Z,4.00
2022-12-08T13:22:20.509Z,4.10
2022-12-08T13:23:17.966Z,4.00
2022-12-08T13:24:18.288Z,4.00
2022-12-08T13:25:18.300Z,3.90
2022-12-08T13:26:18.854Z,4.00
2022-12-08T13:27:19.575Z,4.20
2022-12-08T13:28:20.102Z,4.40
2022-12-08T13:29:21.175Z,4.10
2022-12-08T13:30:21.302Z,4.20
2022-12-08T13:31:21.938Z,4.20